ADDS METAR Data INFO
IDs: Format: Raw Decoded Include TAF

Data at: 0402 UTC 11 Dec 2017

KTCS 110353Z AUTO 30007KT 10SM CLR 03/M15 A3044 RMK AO2 SLP296 T00281150
KTCS 110253Z AUTO 31007KT 10SM CLR 04/M14 A3043 RMK AO2 SLP302 T00441144 52006
KTCS 110153Z AUTO 00000KT 10SM CLR 08/M13 A3043 RMK AO2 SLP292 T00781133
KTCS 110053Z AUTO 00000KT 10SM CLR 08/M14 A3042 RMK AO2 SLP294 T00781139
KTCS 102353Z AUTO 08003KT 10SM CLR 12/M13 A3041 RMK AO2 SLP286 T01171128 10150 20094 56006
KTCS 102253Z AUTO 15003KT 10SM CLR 14/M13 A3042 RMK AO2 SLP277 T01441133
KTCS 102153Z AUTO VRB03KT 10SM CLR 14/M12 A3042 RMK AO2 SLP280 T01441117
KTCS 102053Z AUTO 00000KT 10SM CLR 14/M12 A3043 RMK AO2 SLP283 T01391117 56028
KTCS 101953Z AUTO VRB04KT 10SM CLR 13/M12 A3046 RMK AO2 SLP293 T01281117
KTCS 101853Z AUTO 04004KT 10SM CLR 11/M13 A3050 RMK AO2 SLP308 T01061128
KTCS 101753Z AUTO 03005KT 10SM CLR 09/M12 A3053 RMK AO2 SLP321 T00941122 10094 21028 50001
KTCS 101653Z AUTO 03007KT 10SM CLR 07/M12 A3054 RMK AO2 SLP330 T00721122
KTCS 101553Z AUTO 02006KT 10SM CLR 05/M12 A3053 RMK AO2 SLP329 T00501122
KTCS 101453Z AUTO 35004KT 10SM CLR 00/M13 A3053 RMK AO2 SLP334 T00001133 51015
KTCS 101353Z AUTO 34004KT 10SM CLR 00/M12 A3052 RMK AO2 SLP323 T00001122
KTCS 101253Z AUTO 32006KT 10SM CLR M01/M12 A3049 RMK AO2 SLP315 T10111122
KTCS 101153Z AUTO 35005KT 10SM CLR M03/M13 A3048 RMK AO2 SLP303 T10281133 10028 21028 53000
KTCS 101053Z AUTO 33004KT 10SM CLR M01/M13 A3047 RMK AO2 SLP296 T10061133
KTCS 100953Z AUTO 29008KT 10SM CLR 00/M13 A3048 RMK AO2 SLP298 T00001128
KTCS 100853Z AUTO 29008KT 10SM CLR 01/M13 A3048 RMK AO2 SLP298 T00061128 50000
KTCS 100753Z AUTO 30007KT 10SM CLR 01/M13 A3048 RMK AO2 SLP300 T00061128
KTCS 100653Z AUTO 29007KT 10SM CLR 02/M13 A3048 RMK AO2 SLP300 T00221128 401441028
KTCS 100553Z AUTO 30006KT 10SM CLR 03/M13 A3048 RMK AO2 SLP302 T00281128 10133 20011 50007
KTCS 100453Z AUTO 29007KT 10SM CLR 02/M13 A3048 RMK AO2 SLP309 T00171133
KTCS 100353Z AUTO 29007KT 10SM CLR 02/M14 A3046 RMK AO2 SLP306 T00221139
KTCS 100253Z AUTO 28007KT 10SM CLR 04/M14 A3045 RMK AO2 SLP306 T00441139 51013
KTCS 100153Z AUTO 20004KT 10SM CLR 09/M13 A3044 RMK AO2 SLP294 T00891128
KTCS 100053Z AUTO 00000KT 10SM CLR 09/M14 A3042 RMK AO2 SLP294 T00941139
KTCS 092353Z AUTO 00000KT 10SM CLR 13/M13 A3041 RMK AO2 SLP277 T01331128 10144 20089 52001
KTCS 092253Z AUTO 12003KT 10SM CLR 14/M13 A3041 RMK AO2 SLP277 T01441133
KTCS 092153Z AUTO 13003KT 10SM CLR 14/M13 A3041 RMK AO2 SLP275 T01391133
KTCS 092053Z AUTO 11004KT 10SM CLR 14/M12 A3041 RMK AO2 SLP275 T01391117 56027
KTCS 091953Z AUTO 09003KT 10SM CLR 12/M12 A3043 RMK AO2 SLP284 T01221117
KTCS 091853Z AUTO 00000KT 10SM CLR 11/M11 A3047 RMK AO2 SLP301 T01111106
KTCS 091753Z AUTO 04003KT 10SM CLR 09/M11 A3050 RMK AO2 SLP311 T00891111 10089 21028 50007
KTCS 091653Z AUTO 06004KT 10SM CLR 07/M11 A3051 RMK AO2 SLP317 T00721106